Terminal Aerodrome Forecast
Issued by NWS

Home | Current Version | Previous Version | Graphics & Text | Print | Product List | Glossary On
Versions: 1 2 3 4 5 6 7 8 9 10 11 12 13 14 15 16 17 18 19 20 21 22
000
FTUS43 KMPX 151120
TAFRWF
TAF
KRWF 151120Z 1512/1612 07005KT 5SM BR BKN250
     FM151300 12008KT P6SM BKN250
     FM151700 13010KT P6SM BKN120 OVC250
     FM160000 13008KT P6SM VCSH OVC090
     FM160600 14008KT 5SM SHRA VCTS OVC040CB
     FM160900 14007KT 5SM -SHRA BR OVC025=

USA.gov is the U.S. government's official web portal to all federal, state and local government web resources and services.